createdAt,value
2022-08-17T00:00:11.019Z,17.6
2022-08-17T00:05:10.094Z,17.6
2022-08-17T00:10:10.084Z,17.4
2022-08-17T00:15:10.365Z,17.3
2022-08-17T00:20:10.085Z,17.3
2022-08-17T00:25:10.105Z,17.4
2022-08-17T00:30:10.111Z,17.4
2022-08-17T00:35:10.093Z,17.3
2022-08-17T00:40:10.180Z,17.4
2022-08-17T00:45:10.096Z,17.4
2022-08-17T00:50:10.099Z,17.5
2022-08-17T00:55:10.121Z,17.5
2022-08-17T01:00:10.093Z,17.6
2022-08-17T01:05:10.088Z,17.5
2022-08-17T01:10:57.831Z,17.4
2022-08-17T01:15:10.097Z,17.6
2022-08-17T01:20:10.090Z,17.6
2022-08-17T01:25:10.114Z,17.6
2022-08-17T01:30:54.271Z,17.7
2022-08-17T01:35:10.110Z,17.5
2022-08-17T01:40:10.156Z,17.4
2022-08-17T01:45:10.104Z,17.3
2022-08-17T01:50:10.095Z,17.4
2022-08-17T01:55:10.095Z,17.4
2022-08-17T02:00:10.101Z,17.3
2022-08-17T02:05:10.106Z,17.4
2022-08-17T02:10:10.984Z,17.6
2022-08-17T02:15:10.091Z,17.4
2022-08-17T02:20:10.083Z,17.4
2022-08-17T02:25:10.093Z,17.5
2022-08-17T02:31:00.525Z,17.4
2022-08-17T02:35:10.101Z,17.6
2022-08-17T02:40:10.139Z,17.5
2022-08-17T02:45:10.103Z,17.7
2022-08-17T02:50:10.096Z,17.6
2022-08-17T02:55:10.165Z,17.6
2022-08-17T03:00:10.113Z,17.5
2022-08-17T03:05:10.108Z,17.6
2022-08-17T03:10:10.097Z,17.6
2022-08-17T03:15:10.088Z,17.6
2022-08-17T03:20:10.086Z,17.7
2022-08-17T03:25:10.554Z,17.6
2022-08-17T03:30:10.102Z,17.6
2022-08-17T03:35:10.093Z,17.6
2022-08-17T03:40:10.168Z,17.6
2022-08-17T03:45:10.098Z,17.5
2022-08-17T03:50:10.492Z,17.5
2022-08-17T03:55:10.093Z,17.3
2022-08-17T04:00:10.089Z,17.4
2022-08-17T04:05:10.093Z,17.4
2022-08-17T04:10:10.095Z,17.4
2022-08-17T04:15:10.099Z,17.4
2022-08-17T04:20:10.102Z,17.4
2022-08-17T04:25:10.102Z,17.3
2022-08-17T04:30:10.098Z,17.5
2022-08-17T04:35:10.109Z,17.6
2022-08-17T04:40:10.168Z,17.5
2022-08-17T04:45:10.098Z,17.6
2022-08-17T04:50:10.094Z,17.6
2022-08-17T04:55:10.096Z,17.9
2022-08-17T05:00:10.092Z,18
2022-08-17T05:05:10.090Z,18.1
2022-08-17T05:10:10.088Z,18.3
2022-08-17T05:15:10.092Z,18.3
2022-08-17T05:20:10.082Z,19
2022-08-17T05:25:10.097Z,19.1
2022-08-17T05:30:10.096Z,19.1
2022-08-17T05:35:10.124Z,19.1
2022-08-17T05:40:10.165Z,19.3
2022-08-17T05:45:10.109Z,19.3
2022-08-17T05:50:10.189Z,19.5
2022-08-17T05:55:10.095Z,19.8
2022-08-17T06:00:10.095Z,19.9
2022-08-17T06:05:10.098Z,20.1
2022-08-17T06:10:10.087Z,20.5
2022-08-17T06:15:10.088Z,20.7
2022-08-17T06:20:10.091Z,21.1
2022-08-17T06:25:10.481Z,20.9
2022-08-17T06:30:10.089Z,20.9
2022-08-17T06:35:10.095Z,21
2022-08-17T06:40:10.141Z,21.1
2022-08-17T06:45:10.097Z,21.1
2022-08-17T06:50:10.090Z,21.5
2022-08-17T06:55:10.087Z,21.8
2022-08-17T07:00:10.090Z,21.8
2022-08-17T07:05:10.093Z,22.1
2022-08-17T07:10:10.086Z,22.7
2022-08-17T07:15:10.086Z,23
2022-08-17T07:20:10.085Z,23.1
2022-08-17T07:25:10.112Z,23.3
2022-08-17T07:30:11.026Z,24
2022-08-17T07:35:10.594Z,24.1
2022-08-17T07:40:15.716Z,24.9
2022-08-17T07:45:10.106Z,25.2
2022-08-17T07:50:10.097Z,25.1
2022-08-17T07:55:10.098Z,25.4
2022-08-17T08:00:12.765Z,25
2022-08-17T08:05:10.204Z,25.6
2022-08-17T08:10:10.084Z,25.8
2022-08-17T08:15:10.124Z,25.6
2022-08-17T08:20:35.134Z,26.1
2022-08-17T08:25:10.095Z,26.6
2022-08-17T08:30:10.108Z,26.9
2022-08-17T08:35:10.095Z,26.6
2022-08-17T08:40:10.193Z,27.3
2022-08-17T08:45:10.109Z,27.3
2022-08-17T08:50:30.444Z,26.7
2022-08-17T08:55:10.113Z,26.8
2022-08-17T09:00:10.091Z,27
2022-08-17T09:05:14.563Z,28.2
2022-08-17T09:10:10.096Z,28.6
2022-08-17T09:15:12.921Z,28.1
2022-08-17T09:20:10.111Z,28.2
2022-08-17T09:25:10.107Z,28.3
2022-08-17T09:30:10.092Z,28.4
2022-08-17T09:35:10.104Z,28.6
2022-08-17T09:40:10.193Z,28.5
2022-08-17T09:45:10.103Z,28.3
2022-08-17T09:50:10.091Z,28.4
2022-08-17T09:55:10.092Z,28.2
2022-08-17T10:00:10.094Z,28.5
2022-08-17T10:05:10.097Z,28.2
2022-08-17T10:10:14.005Z,28.5
2022-08-17T10:15:10.101Z,29
2022-08-17T10:20:10.093Z,29.5
2022-08-17T10:25:21.944Z,30.1
2022-08-17T10:30:10.084Z,30.2
2022-08-17T10:35:10.142Z,31.1
2022-08-17T10:40:10.199Z,30.9
2022-08-17T10:45:10.100Z,30.4
2022-08-17T10:50:10.103Z,30.1
2022-08-17T10:55:10.095Z,30.1
2022-08-17T11:00:10.094Z,29.8
2022-08-17T11:05:10.094Z,29.7
2022-08-17T11:10:10.082Z,29.7
2022-08-17T11:15:10.092Z,29.5
2022-08-17T11:20:10.095Z,29.5
2022-08-17T11:25:10.100Z,29.4
2022-08-17T11:30:10.155Z,29.6
2022-08-17T11:35:10.094Z,29.3
2022-08-17T11:40:10.200Z,29.6
2022-08-17T11:45:10.098Z,29.7
2022-08-17T11:50:10.089Z,30.1
2022-08-17T11:55:33.780Z,30.1
2022-08-17T12:00:10.107Z,30.1
2022-08-17T12:05:12.114Z,29.7
2022-08-17T12:10:10.084Z,29.3
2022-08-17T12:15:11.686Z,29.1
2022-08-17T12:20:10.095Z,29
2022-08-17T12:25:10.096Z,28.7
2022-08-17T12:30:10.093Z,28.2
2022-08-17T12:35:10.094Z,28.1
2022-08-17T12:40:10.175Z,27.9
2022-08-17T12:45:10.096Z,27.6
2022-08-17T12:50:28.399Z,27.6
2022-08-17T12:55:10.094Z,27.1
2022-08-17T13:00:10.090Z,26.8
2022-08-17T13:05:10.097Z,26.3
2022-08-17T13:10:10.095Z,25.6
2022-08-17T13:15:10.097Z,25.3
2022-08-17T13:20:10.087Z,25.3
2022-08-17T13:25:10.088Z,25.1
2022-08-17T13:30:10.088Z,25
2022-08-17T13:35:13.247Z,24.8
2022-08-17T13:40:10.217Z,24.8
2022-08-17T13:45:32.289Z,24.9
2022-08-17T13:50:10.090Z,24.9
2022-08-17T13:55:10.091Z,24.9
2022-08-17T14:00:10.093Z,25
2022-08-17T14:05:10.101Z,25.1
2022-08-17T14:10:10.094Z,25
2022-08-17T14:15:10.091Z,25
2022-08-17T14:20:10.090Z,25
2022-08-17T14:25:10.292Z,25.1
2022-08-17T14:30:10.092Z,25.1
2022-08-17T14:35:10.083Z,25.2
2022-08-17T14:40:10.178Z,25.5
2022-08-17T14:45:26.992Z,25.8
2022-08-17T14:50:10.084Z,25.9
2022-08-17T14:55:10.098Z,26.1
2022-08-17T15:00:10.086Z,26.1
2022-08-17T15:05:10.091Z,26.1
2022-08-17T15:10:10.085Z,26.2
2022-08-17T15:15:10.098Z,26.7
2022-08-17T15:20:14.201Z,27.3
2022-08-17T15:25:10.094Z,27.6
2022-08-17T15:30:10.105Z,27.5
2022-08-17T15:35:10.107Z,27.7
2022-08-17T15:40:10.150Z,27.7
2022-08-17T15:45:10.094Z,27.4
2022-08-17T15:50:10.089Z,27.4
2022-08-17T15:55:10.090Z,27.4
2022-08-17T16:00:10.090Z,27.8
2022-08-17T16:05:10.392Z,28.5
2022-08-17T16:10:10.086Z,28.5
2022-08-17T16:15:10.095Z,28.2
2022-08-17T16:20:10.104Z,28.3
2022-08-17T16:25:10.088Z,28.8
2022-08-17T16:30:13.647Z,28.5
2022-08-17T16:35:10.101Z,28.5
2022-08-17T16:40:10.169Z,28.7
2022-08-17T16:45:10.103Z,29
2022-08-17T16:50:10.086Z,29
2022-08-17T16:55:10.099Z,29.5
2022-08-17T17:00:10.094Z,29.4
2022-08-17T17:05:10.094Z,29.2
2022-08-17T17:10:10.087Z,29.2
2022-08-17T17:15:10.096Z,28.6
2022-08-17T17:20:10.118Z,28.6
2022-08-17T17:25:10.092Z,27
2022-08-17T17:30:10.081Z,26.7
2022-08-17T17:35:10.099Z,26.4
2022-08-17T17:40:10.102Z,26.3
2022-08-17T17:45:10.100Z,26.1
2022-08-17T17:50:10.097Z,25.9
2022-08-17T17:55:10.100Z,25.5
2022-08-17T18:00:10.092Z,25.2
2022-08-17T18:05:10.092Z,24.9
2022-08-17T18:10:13.633Z,24.6
2022-08-17T18:15:10.238Z,24.2
2022-08-17T18:20:10.087Z,23.9
2022-08-17T18:25:10.096Z,23.7
2022-08-17T18:30:10.086Z,23.5
2022-08-17T18:35:10.109Z,23.4
2022-08-17T18:40:10.158Z,23.3
2022-08-17T18:45:10.103Z,22.9
2022-08-17T18:50:10.813Z,22.5
2022-08-17T18:55:10.100Z,22.3
2022-08-17T19:00:10.090Z,22.2
2022-08-17T19:05:10.099Z,22
2022-08-17T19:10:10.089Z,21.9
2022-08-17T19:15:10.086Z,21.8
2022-08-17T19:20:10.092Z,21.6
2022-08-17T19:25:10.095Z,21.6
2022-08-17T19:30:10.086Z,21.5
2022-08-17T19:35:13.692Z,21.4
2022-08-17T19:40:10.185Z,21.4
2022-08-17T19:45:10.091Z,21.2
2022-08-17T19:50:10.086Z,21
2022-08-17T19:55:10.101Z,20.8
2022-08-17T20:00:10.097Z,20.7
2022-08-17T20:05:10.092Z,20.6
2022-08-17T20:10:10.110Z,20.5
2022-08-17T20:15:10.099Z,20.3
2022-08-17T20:20:19.260Z,20.7
2022-08-17T20:25:10.087Z,21.1
2022-08-17T20:30:10.089Z,21.1
2022-08-17T20:35:10.090Z,21
2022-08-17T20:40:10.167Z,20.8
2022-08-17T20:45:10.098Z,20.4
2022-08-17T20:50:10.080Z,20.1
2022-08-17T20:55:10.125Z,19.8
2022-08-17T21:00:10.442Z,19.8
2022-08-17T21:05:10.103Z,19.8
2022-08-17T21:10:10.093Z,19.8
2022-08-17T21:15:10.094Z,19.7
2022-08-17T21:20:11.742Z,19.5
2022-08-17T21:25:10.100Z,19.6
2022-08-17T21:30:11.815Z,19.7
2022-08-17T21:35:10.104Z,19.7
2022-08-17T21:40:10.189Z,19.7
2022-08-17T21:45:10.104Z,20
2022-08-17T21:50:10.091Z,20
2022-08-17T21:55:10.099Z,20
2022-08-17T22:00:10.097Z,19.8
2022-08-17T22:05:10.131Z,19.6
2022-08-17T22:10:10.095Z,19.6
2022-08-17T22:15:10.102Z,19.5
2022-08-17T22:20:10.087Z,19.6
2022-08-17T22:25:10.106Z,19.6
2022-08-17T22:30:10.090Z,19.5
2022-08-17T22:35:10.102Z,19.5
2022-08-17T22:40:10.160Z,19.7
2022-08-17T22:45:10.098Z,19.6
2022-08-17T22:50:10.098Z,19.4
2022-08-17T22:55:10.099Z,19.2
2022-08-17T23:00:10.097Z,19.1
2022-08-17T23:05:10.101Z,19.1
2022-08-17T23:10:10.094Z,19.1
2022-08-17T23:15:10.091Z,19.2
2022-08-17T23:20:10.097Z,19.1
2022-08-17T23:25:10.100Z,19.1
2022-08-17T23:30:10.096Z,19
2022-08-17T23:35:10.100Z,19
2022-08-17T23:40:10.163Z,19
2022-08-17T23:45:10.096Z,19
2022-08-17T23:50:10.095Z,19
2022-08-17T23:55:10.099Z,19.1
